Time;durP1;ratioP1;P1;durP2;ratioP2;P2;SDS_P1;SDS_P2;PMS_P1;PMS_P2;Temp;Humidity;BMP_temperature;BMP_pressure;BME280_temperature;BME280_humidity;BME280_pressure;Samples;Min_cycle;Max_cycle;Signal;HPM_P1;HPM_P2
2023/04/21 00:02:14;;;;;;;14.82;10.70;;;;;;;11.99;78.87;98970.16;5096443;28;20075;-73
2023/04/21 00:04:40;;;;;;;13.43;10.43;;;;;;;11.75;80.15;98974.69;5094570;28;20505;-73
2023/04/21 00:07:06;;;;;;;11.15;9.15;;;;;;;11.77;80.80;98969.53;5111770;28;20106;-73
2023/04/21 00:09:31;;;;;;;11.95;9.35;;;;;;;11.70;80.98;98969.31;5093211;28;20419;-73
2023/04/21 00:11:56;;;;;;;14.68;9.18;;;;;;;11.96;78.78;98966.06;5094127;28;20131;-73
2023/04/21 00:14:23;;;;;;;9.77;8.77;;;;;;;12.01;77.70;98959.41;5100629;28;20048;-73
2023/04/21 00:16:51;;;;;;;15.60;9.57;;;;;;;12.06;77.76;98970.38;5092435;28;20031;-73
2023/04/21 00:19:18;;;;;;;10.50;8.75;;;;;;;12.02;77.79;98966.66;5103387;28;20089;-73
2023/04/21 00:21:44;;;;;;;13.02;9.10;;;;;;;12.09;77.49;98978.09;5101651;28;20024;-72
2023/04/21 00:24:10;;;;;;;11.85;9.10;;;;;;;12.23;77.00;98982.47;5107730;28;20136;-73
2023/04/21 00:26:35;;;;;;;10.90;8.48;;;;;;;12.05;76.77;98975.19;5094017;28;20145;-73
2023/04/21 00:29:01;;;;;;;11.55;7.78;;;;;;;12.00;76.44;98974.59;5093182;28;20031;-73
2023/04/21 00:31:26;;;;;;;10.00;8.88;;;;;;;11.28;78.98;98967.66;5092573;28;20035;-73
2023/04/21 00:33:52;;;;;;;12.52;8.82;;;;;;;11.56;78.26;98961.31;5085957;28;20436;-73
2023/04/21 00:36:18;;;;;;;11.95;9.40;;;;;;;11.60;78.51;98963.06;5093511;28;20027;-73
2023/04/21 00:38:43;;;;;;;12.63;9.75;;;;;;;11.37;79.72;98966.38;5093400;28;20031;-73
2023/04/21 00:41:09;;;;;;;15.40;10.50;;;;;;;11.31;80.60;98956.56;5092649;28;20027;-72
2023/04/21 00:43:35;;;;;;;11.98;9.88;;;;;;;10.74;83.03;98956.38;5107722;28;20027;-73
2023/04/21 00:46:01;;;;;;;14.98;10.20;;;;;;;10.72;83.86;98958.69;5112641;28;20030;-73
2023/04/21 00:48:26;;;;;;;14.05;11.20;;;;;;;10.51;85.39;98954.03;5092947;28;20058;-73
2023/04/21 00:50:52;;;;;;;14.82;11.43;;;;;;;10.51;85.59;98954.03;5112559;28;20050;-73
2023/04/21 00:53:19;;;;;;;16.40;10.73;;;;;;;10.52;85.66;98954.84;5093053;28;20120;-73
2023/04/21 00:55:45;;;;;;;13.68;10.52;;;;;;;10.36;87.22;98957.44;5108095;28;20024;-73
2023/04/21 00:58:10;;;;;;;14.30;10.00;;;;;;;10.47;86.55;98953.06;5099011;28;20042;-73
2023/04/21 01:00:37;;;;;;;15.05;10.55;;;;;;;10.41;86.58;98948.88;5112429;28;20027;-73
2023/04/21 01:03:04;;;;;;;15.00;10.32;;;;;;;10.10;88.96;98958.53;5101000;28;20059;-73
2023/04/21 01:05:30;;;;;;;15.60;11.00;;;;;;;10.08;88.92;98950.53;5093970;28;20034;-73
2023/04/21 01:07:56;;;;;;;14.82;11.02;;;;;;;9.94;89.96;98950.81;5093657;28;20023;-73
2023/04/21 01:10:22;;;;;;;13.85;11.30;;;;;;;10.08;90.00;98952.50;5111705;28;20505;-73
2023/04/21 01:12:47;;;;;;;17.20;11.95;;;;;;;10.07;89.58;98946.06;5092258;28;20060;-73
2023/04/21 01:15:15;;;;;;;16.48;11.10;;;;;;;9.76;91.76;98944.56;5111849;28;20031;-72
2023/04/21 01:17:40;;;;;;;18.38;11.80;;;;;;;9.77;92.24;98949.00;5092909;28;20027;-73
2023/04/21 01:20:12;;;;;;;18.65;12.07;;;;;;;9.36;94.34;98951.47;5092590;28;20024;-72
2023/04/21 01:22:38;;;;;;;16.20;12.13;;;;;;;9.56;94.49;98943.44;5093746;28;20030;-73
2023/04/21 01:25:05;;;;;;;16.05;11.57;;;;;;;9.72;93.61;98953.97;5094068;28;20055;-73
2023/04/21 01:27:30;;;;;;;15.18;13.02;;;;;;;9.87;92.12;98952.53;5106780;28;20024;-72
2023/04/21 01:29:56;;;;;;;18.27;11.60;;;;;;;9.63;93.35;98949.28;5094909;28;20028;-73
2023/04/21 01:32:24;;;;;;;13.48;11.18;;;;;;;9.52;94.20;98942.47;5103291;28;20016;-73
2023/04/21 01:34:50;;;;;;;14.75;11.57;;;;;;;9.43;94.95;98945.34;5101079;28;20080;-72
2023/04/21 01:37:19;;;;;;;19.20;13.98;;;;;;;9.26;95.87;98935.13;5112010;28;20085;-73
2023/04/21 01:39:51;;;;;;;15.77;12.43;;;;;;;9.33;97.04;98941.00;5096499;28;20020;-73
2023/04/21 01:42:17;;;;;;;16.30;11.55;;;;;;;9.35;96.54;98938.66;5095288;28;20019;-73
2023/04/21 01:44:43;;;;;;;19.48;13.73;;;;;;;9.25;96.93;98944.66;5099563;28;20536;-72
2023/04/21 01:47:10;;;;;;;16.27;13.25;;;;;;;9.23;97.70;98952.56;5084949;28;20056;-73
2023/04/21 01:49:35;;;;;;;15.82;12.40;;;;;;;9.16;98.03;98944.72;5087624;28;20015;-73
2023/04/21 01:52:01;;;;;;;17.30;13.88;;;;;;;9.30;97.41;98943.63;5110487;28;20398;-73
2023/04/21 01:54:26;;;;;;;19.75;12.20;;;;;;;9.29;97.77;98944.78;5109271;28;20031;-73
2023/04/21 01:56:52;;;;;;;18.00;12.77;;;;;;;9.54;96.41;98938.19;5091555;28;20054;-73
2023/04/21 01:59:17;;;;;;;19.08;13.98;;;;;;;9.78;95.19;98939.47;5105874;28;20038;-73
2023/04/21 02:01:43;;;;;;;16.90;12.90;;;;;;;9.84;93.34;98937.28;5092779;28;20025;-73
2023/04/21 02:04:08;;;;;;;15.70;12.20;;;;;;;10.03;93.14;98935.97;5110993;28;20019;-73
2023/04/21 02:06:34;;;;;;;20.40;12.38;;;;;;;10.23;92.20;98943.44;5092358;28;20019;-73
2023/04/21 02:09:00;;;;;;;16.67;12.63;;;;;;;10.38;90.80;98939.16;5104684;28;20047;-73
2023/04/21 02:11:25;;;;;;;14.48;11.85;;;;;;;10.40;89.61;98938.84;5111492;28;20049;-73
2023/04/21 02:13:54;;;;;;;14.30;11.98;;;;;;;10.30;89.39;98942.06;5093803;28;20028;-72
2023/04/21 02:16:25;;;;;;;14.70;11.93;;;;;;;10.24;88.80;98938.69;5100789;28;20526;-73
2023/04/21 02:18:52;;;;;;;18.10;11.18;;;;;;;9.83;92.37;98938.44;5095429;28;20032;-72
2023/04/21 02:21:18;;;;;;;20.20;12.88;;;;;;;10.03;91.81;98945.13;5111055;28;20465;-73
2023/04/21 02:23:44;;;;;;;17.75;13.25;;;;;;;10.33;90.53;98946.97;5115567;28;20378;-72
2023/04/21 02:26:10;;;;;;;17.63;12.02;;;;;;;10.18;90.14;98945.66;5114821;28;20046;-73
2023/04/21 02:28:35;;;;;;;22.90;12.85;;;;;;;10.39;89.73;98935.22;5108432;28;20429;-73
2023/04/21 02:31:00;;;;;;;18.58;11.98;;;;;;;10.63;87.79;98944.03;5114833;28;20539;-73
2023/04/21 02:33:26;;;;;;;17.05;12.07;;;;;;;10.71;86.86;98937.50;5094747;28;20373;-73
2023/04/21 02:35:51;;;;;;;17.30;12.32;;;;;;;10.70;86.19;98941.44;5112575;28;20028;-73
2023/04/21 02:38:17;;;;;;;13.65;11.55;;;;;;;10.57;85.19;98932.25;5114819;28;20039;-73
2023/04/21 02:40:42;;;;;;;16.02;12.10;;;;;;;10.56;84.91;98943.78;5114275;28;20032;-72
2023/04/21 02:43:08;;;;;;;18.23;13.93;;;;;;;10.57;85.33;98928.63;5110522;28;20035;-73
2023/04/21 02:45:33;;;;;;;16.52;12.10;;;;;;;10.53;85.50;98934.09;5114410;28;20038;-73
2023/04/21 02:47:59;;;;;;;19.63;12.80;;;;;;;10.60;85.82;98931.53;5113772;28;20032;-73
2023/04/21 02:50:24;;;;;;;14.10;11.45;;;;;;;10.51;85.55;98930.84;5087782;28;20023;-72
2023/04/21 02:52:50;;;;;;;16.75;12.52;;;;;;;10.43;85.13;98935.38;5091778;28;20031;-73
2023/04/21 02:55:15;;;;;;;24.45;14.43;;;;;;;10.04;88.42;98940.38;5096147;28;20027;-73
2023/04/21 02:57:41;;;;;;;21.13;14.38;;;;;;;9.58;90.55;98927.16;5114411;28;20400;-73
2023/04/21 03:00:08;;;;;;;20.80;14.57;;;;;;;9.88;90.64;98929.84;5114728;28;20024;-73
2023/04/21 03:02:33;;;;;;;22.00;15.63;;;;;;;9.83;90.61;98936.47;5095586;28;20040;-73
2023/04/21 03:04:59;;;;;;;33.75;18.92;;;;;;;10.06;90.11;98935.25;5076032;28;20031;-73
2023/04/21 03:07:24;;;;;;;32.42;18.67;;;;;;;10.22;88.37;98936.22;5094574;28;20023;-73
2023/04/21 03:09:50;;;;;;;26.45;18.50;;;;;;;10.10;88.69;98928.63;5094455;28;20028;-72
2023/04/21 03:12:15;;;;;;;31.90;20.15;;;;;;;10.11;87.42;98926.66;5094072;28;20047;-72
2023/04/21 03:14:41;;;;;;;32.72;17.50;;;;;;;10.13;87.89;98926.31;5108054;28;20024;-73
2023/04/21 03:17:06;;;;;;;29.98;18.73;;;;;;;10.21;87.87;98923.41;5100968;28;20092;-72
2023/04/21 03:19:32;;;;;;;25.98;17.25;;;;;;;10.31;86.79;98926.94;5110925;28;20028;-73
2023/04/21 03:21:57;;;;;;;19.08;15.10;;;;;;;10.34;86.90;98926.22;5108202;28;20035;-73
2023/04/21 03:24:23;;;;;;;20.20;15.18;;;;;;;10.18;86.66;98932.50;5097316;28;20020;-73
2023/04/21 03:26:48;;;;;;;25.45;16.10;;;;;;;10.28;87.26;98925.63;5111221;28;20031;-72
2023/04/21 03:29:14;;;;;;;22.35;16.30;;;;;;;10.28;86.83;98928.44;5107881;28;20031;-73
2023/04/21 03:31:39;;;;;;;29.98;18.30;;;;;;;10.20;87.94;98932.16;5114249;28;20035;-73
2023/04/21 03:34:04;;;;;;;24.45;17.38;;;;;;;10.29;87.67;98932.06;5094694;28;20779;-73
2023/04/21 03:36:30;;;;;;;23.00;16.80;;;;;;;10.27;87.58;98937.19;5080629;28;20462;-73
2023/04/21 03:38:57;;;;;;;51.45;37.00;;;;;;;10.28;86.70;98938.81;5106659;28;20152;-72
2023/04/21 03:41:23;;;;;;;54.10;39.05;;;;;;;10.23;87.23;98939.84;5104435;28;20024;-73
2023/04/21 03:43:50;;;;;;;99.10;59.95;;;;;;;10.07;87.22;98945.28;5086199;28;20030;-73
2023/04/21 03:46:20;;;;;;;45.05;31.45;;;;;;;10.15;86.91;98952.75;5113524;28;20467;-73
2023/04/21 03:48:47;;;;;;;28.00;16.65;;;;;;;10.09;84.39;98965.31;5090570;28;20035;-73
2023/04/21 03:51:13;;;;;;;19.88;15.07;;;;;;;9.93;85.94;98963.16;5091831;28;20080;-72
2023/04/21 03:53:39;;;;;;;23.05;15.52;;;;;;;9.73;86.73;98964.81;5113333;28;20122;-72
2023/04/21 03:56:05;;;;;;;16.08;13.13;;;;;;;9.61;86.98;98964.75;5096087;28;20115;-73
2023/04/21 03:58:30;;;;;;;20.42;15.00;;;;;;;9.60;86.23;98975.09;5102765;28;20094;-73
2023/04/21 04:00:56;;;;;;;22.63;14.90;;;;;;;9.67;86.24;98957.78;5086782;28;20100;-73
2023/04/21 04:03:21;;;;;;;26.15;15.60;;;;;;;9.58;85.55;98976.59;5112222;28;20062;-73
2023/04/21 04:05:46;;;;;;;29.42;16.85;;;;;;;9.38;87.72;98982.63;5094924;28;20051;-73
2023/04/21 04:08:12;;;;;;;32.47;17.98;;;;;;;9.58;87.43;98974.63;5113174;28;20454;-73
2023/04/21 04:10:37;;;;;;;38.28;23.30;;;;;;;9.81;86.97;98974.28;5091430;28;20050;-72
2023/04/21 04:13:03;;;;;;;39.47;25.45;;;;;;;9.55;87.24;98986.47;5085080;28;20093;-73
2023/04/21 04:15:28;;;;;;;49.92;33.45;;;;;;;9.59;88.13;98993.00;5098394;28;20028;-73
2023/04/21 04:17:54;;;;;;;53.33;32.03;;;;;;;9.41;89.71;98990.38;5099219;28;20039;-73
2023/04/21 04:20:20;;;;;;;53.22;29.73;;;;;;;9.62;89.57;98995.13;5112643;28;20026;-72
2023/04/21 04:22:46;;;;;;;47.42;27.33;;;;;;;9.55;90.24;99006.84;5112903;28;20036;-73
2023/04/21 04:25:13;;;;;;;30.17;22.15;;;;;;;9.53;90.52;99005.53;5096615;28;20028;-73
2023/04/21 04:27:40;;;;;;;42.45;23.42;;;;;;;9.48;90.34;99003.78;5093959;28;20027;-73
2023/04/21 04:30:06;;;;;;;41.50;24.83;;;;;;;9.72;90.11;99004.25;5113035;28;20037;-73
2023/04/21 04:32:32;;;;;;;32.42;25.13;;;;;;;9.97;90.05;99002.41;5087893;28;20028;-73
2023/04/21 04:34:58;;;;;;;32.35;22.00;;;;;;;10.20;88.65;98991.66;5089254;28;20039;-73
2023/04/21 04:37:24;;;;;;;31.35;22.08;;;;;;;10.53;87.64;99007.63;5095589;28;20071;-73
2023/04/21 04:39:53;;;;;;;29.00;20.42;;;;;;;10.84;86.53;99010.22;5104405;28;20395;-74
2023/04/21 04:42:19;;;;;;;24.02;19.60;;;;;;;10.94;85.24;99005.00;5094007;28;20103;-73
2023/04/21 04:44:45;;;;;;;31.42;19.45;;;;;;;11.13;84.34;99009.19;5111944;28;20501;-73
2023/04/21 04:47:11;;;;;;;26.48;18.48;;;;;;;11.21;83.52;99013.03;5107827;28;20548;-73
2023/04/21 04:49:37;;;;;;;19.25;17.00;;;;;;;11.32;82.98;99011.41;5109163;28;20024;-73
2023/04/21 04:52:03;;;;;;;21.10;17.02;;;;;;;11.49;82.04;99009.53;5097143;27;20031;-74
2023/04/21 04:54:29;;;;;;;29.10;21.38;;;;;;;11.58;81.47;99007.38;5081451;28;20445;-73
2023/04/21 04:56:56;;;;;;;28.13;20.38;;;;;;;11.62;81.36;99011.13;5102906;28;20097;-73
2023/04/21 04:59:21;;;;;;;28.50;18.35;;;;;;;11.74;80.40;99018.69;5094060;28;20413;-73
2023/04/21 05:01:47;;;;;;;27.65;18.90;;;;;;;11.88;80.13;99023.91;5081254;28;20047;-75
2023/04/21 05:04:16;;;;;;;36.20;21.30;;;;;;;11.99;79.05;99020.59;5096704;27;20050;-75
2023/04/21 05:06:41;;;;;;;31.23;17.92;;;;;;;12.03;78.78;99013.13;5091759;28;20519;-74
2023/04/21 05:09:07;;;;;;;25.63;18.10;;;;;;;12.15;78.32;99020.69;5092999;28;20028;-71
2023/04/21 05:11:32;;;;;;;32.67;21.58;;;;;;;11.86;79.71;99015.03;5101257;28;20052;-73
2023/04/21 05:13:58;;;;;;;33.20;26.60;;;;;;;12.24;79.35;99020.53;5091890;27;20035;-72
2023/04/21 05:16:23;;;;;;;33.92;21.48;;;;;;;12.19;78.21;99025.25;5091512;28;20059;-73
2023/04/21 05:18:54;;;;;;;32.50;23.30;;;;;;;12.46;78.38;99017.16;5097845;28;20031;-69
2023/04/21 05:21:27;;;;;;;29.50;21.38;;;;;;;12.70;77.25;99018.19;5083863;28;20020;-72
2023/04/21 05:23:56;;;;;;;55.05;20.77;;;;;;;12.87;76.94;99004.97;5082212;28;20030;-73
2023/04/21 05:26:23;;;;;;;20.30;16.37;;;;;;;12.97;75.83;99012.84;5098748;28;20094;-74
2023/04/21 05:28:48;;;;;;;31.63;19.23;;;;;;;13.16;75.50;99005.69;5100710;28;20418;-77
2023/04/21 05:31:14;;;;;;;28.42;15.82;;;;;;;13.45;74.93;99009.22;5097435;28;20019;-73
2023/04/21 05:33:39;;;;;;;34.25;23.88;;;;;;;13.66;72.35;99010.88;5089575;28;20073;-76
2023/04/21 05:36:08;;;;;;;21.17;16.40;;;;;;;13.78;72.13;99012.75;5104238;28;20023;-76
2023/04/21 05:38:34;;;;;;;21.75;17.08;;;;;;;14.02;70.89;99006.84;5091580;28;20111;-74
2023/04/21 05:41:00;;;;;;;22.08;14.85;;;;;;;14.02;68.94;99003.22;5093436;28;20051;-76
2023/04/21 05:43:25;;;;;;;15.80;10.32;;;;;;;14.10;67.84;99004.97;5093070;28;20474;-74
2023/04/21 05:45:51;;;;;;;16.50;11.20;;;;;;;14.30;67.27;98990.91;5094168;28;20483;-73
2023/04/21 05:48:17;;;;;;;31.77;10.95;;;;;;;14.43;64.56;99000.00;5092173;28;20031;-75
2023/04/21 05:50:42;;;;;;;14.38;10.40;;;;;;;14.57;64.17;98991.84;5107970;28;20605;-73
2023/04/21 05:53:07;;;;;;;18.23;10.60;;;;;;;14.51;63.82;98989.69;5095598;28;20043;-73
2023/04/21 05:55:34;;;;;;;15.45;9.15;;;;;;;14.56;63.38;98997.81;5094035;28;20062;-74
2023/04/21 05:57:59;;;;;;;14.35;10.35;;;;;;;14.60;62.67;98973.41;5095452;28;20027;-71
2023/04/21 06:00:25;;;;;;;12.75;9.32;;;;;;;14.78;61.30;98987.81;5086430;28;20023;-73
2023/04/21 06:02:50;;;;;;;17.63;10.27;;;;;;;15.04;61.48;98991.03;5113671;28;20028;-71
2023/04/21 06:05:16;;;;;;;15.10;8.90;;;;;;;15.19;59.73;98981.63;5114573;28;20015;-70
2023/04/21 06:07:41;;;;;;;33.85;11.10;;;;;;;15.30;59.54;98988.22;5096725;28;20454;-71
2023/04/21 06:10:07;;;;;;;25.08;9.35;;;;;;;15.30;57.81;98976.97;5105494;28;20012;-72
2023/04/21 06:12:33;;;;;;;18.92;8.23;;;;;;;15.30;56.56;98982.59;5110009;28;20051;-71
2023/04/21 06:14:58;;;;;;;15.30;7.90;;;;;;;15.42;58.19;98983.56;5115071;28;20026;-74
2023/04/21 06:17:24;;;;;;;12.00;8.65;;;;;;;15.50;56.94;98990.13;5096349;28;20042;-69
2023/04/21 06:19:54;;;;;;;14.23;9.07;;;;;;;15.67;57.80;98985.94;5095054;28;20038;-70
2023/04/21 06:22:21;;;;;;;10.82;7.95;;;;;;;15.63;56.66;98993.53;5096201;28;20386;-70
2023/04/21 06:24:46;;;;;;;20.88;7.88;;;;;;;15.82;55.70;98995.41;5100706;28;20030;-68
2023/04/21 06:27:12;;;;;;;12.75;8.43;;;;;;;15.78;55.68;98988.91;5103767;28;20111;-68
2023/04/21 06:29:38;;;;;;;15.73;8.55;;;;;;;15.99;54.18;98992.06;5104409;28;20062;-70
2023/04/21 06:32:04;;;;;;;13.68;8.30;;;;;;;15.20;55.19;98983.25;5098552;28;20451;-71
2023/04/21 06:34:29;;;;;;;14.90;8.77;;;;;;;15.78;55.80;98986.91;5090025;28;20063;-71
2023/04/21 06:36:55;;;;;;;18.25;8.68;;;;;;;16.05;54.23;98981.25;5109765;28;20027;-70
2023/04/21 06:39:20;;;;;;;11.93;7.80;;;;;;;16.31;52.08;98987.16;5103749;27;20027;-71
2023/04/21 06:41:45;;;;;;;11.52;8.23;;;;;;;16.17;53.46;98982.97;5098410;28;20023;-72
2023/04/21 06:44:12;;;;;;;16.60;9.15;;;;;;;16.31;52.38;98984.34;5101477;28;20027;-72
2023/04/21 06:46:39;;;;;;;16.02;9.02;;;;;;;16.36;53.81;98984.81;5094421;28;20558;-72
2023/04/21 06:49:06;;;;;;;16.02;10.02;;;;;;;16.10;54.92;98982.88;5098363;28;20103;-72
2023/04/21 06:51:31;;;;;;;15.30;8.68;;;;;;;15.91;54.05;98975.41;5096886;28;20020;-72
2023/04/21 06:53:57;;;;;;;13.30;9.68;;;;;;;15.88;53.52;98976.97;5082764;28;20564;-71
2023/04/21 06:56:22;;;;;;;12.68;8.52;;;;;;;15.94;55.38;98975.47;5112106;28;20037;-71
2023/04/21 06:58:48;;;;;;;13.68;9.27;;;;;;;16.24;54.41;98988.72;5110397;27;20036;-71
2023/04/21 07:01:13;;;;;;;19.38;11.82;;;;;;;16.40;54.61;98982.81;5105259;28;20028;-71
2023/04/21 07:03:39;;;;;;;11.90;9.13;;;;;;;16.22;53.35;98976.19;5102649;28;20024;-73
2023/04/21 07:06:05;;;;;;;12.25;8.27;;;;;;;16.04;54.38;98967.53;5105381;28;20019;-71
2023/04/21 07:08:31;;;;;;;13.63;9.18;;;;;;;16.08;53.50;98965.53;5108811;28;20097;-73
2023/04/21 07:10:56;;;;;;;19.45;10.23;;;;;;;16.12;56.15;98970.03;5095256;28;20031;-72
2023/04/21 07:13:22;;;;;;;12.10;10.13;;;;;;;16.36;55.83;98961.44;5113360;28;20047;-72
2023/04/21 07:15:47;;;;;;;11.80;8.55;;;;;;;16.42;55.27;98974.81;5108027;28;20035;-72
2023/04/21 07:18:13;;;;;;;13.57;8.77;;;;;;;16.83;53.16;98981.66;5093431;28;20024;-73
2023/04/21 07:20:38;;;;;;;17.67;10.75;;;;;;;16.42;55.47;98969.16;5100333;28;20027;-73
2023/04/21 07:23:04;;;;;;;21.33;10.40;;;;;;;16.61;54.59;98969.34;5111916;28;20023;-72
2023/04/21 07:25:29;;;;;;;10.48;8.93;;;;;;;16.76;53.10;98978.75;5094857;28;20024;-72
2023/04/21 07:27:55;;;;;;;13.77;8.95;;;;;;;16.81;50.89;98972.75;5110252;28;20499;-73
2023/04/21 07:30:20;;;;;;;12.57;9.50;;;;;;;16.68;51.88;98966.56;5108344;28;20036;-74
2023/04/21 07:32:46;;;;;;;10.05;8.95;;;;;;;16.66;49.96;98974.63;5101543;28;20035;-74
2023/04/21 07:35:11;;;;;;;12.48;8.68;;;;;;;16.65;49.68;98967.34;5087903;28;20027;-73
2023/04/21 07:37:38;;;;;;;12.13;9.52;;;;;;;16.84;50.40;98971.97;5088856;28;20031;-73
2023/04/21 07:40:05;;;;;;;12.52;10.00;;;;;;;16.86;52.25;98963.91;5113224;28;20031;-73
2023/04/21 07:42:30;;;;;;;12.70;9.25;;;;;;;17.36;50.52;98959.88;5094711;28;20398;-73
2023/04/21 07:44:56;;;;;;;11.13;9.05;;;;;;;17.71;49.47;98964.13;5112405;28;20034;-73
2023/04/21 07:47:22;;;;;;;11.45;8.38;;;;;;;17.14;45.89;98962.56;5092472;28;20490;-73
2023/04/21 07:49:47;;;;;;;10.15;8.23;;;;;;;17.26;46.62;98965.06;5094656;28;20033;-73
2023/04/21 07:52:13;;;;;;;10.93;7.57;;;;;;;17.34;46.70;98967.94;5112823;28;20046;-73
2023/04/21 07:54:38;;;;;;;10.07;7.70;;;;;;;17.50;46.31;98964.81;5111611;28;20023;-73
2023/04/21 07:57:04;;;;;;;9.77;8.77;;;;;;;17.39;46.72;98964.75;5112940;28;20039;-73
2023/04/21 07:59:29;;;;;;;11.32;8.55;;;;;;;17.79;46.76;98962.94;5108739;28;20024;-70
2023/04/21 08:01:55;;;;;;;14.10;8.63;;;;;;;17.76;47.38;98962.94;5109436;28;20016;-69
2023/04/21 08:04:20;;;;;;;12.57;8.55;;;;;;;18.26;46.17;98956.69;5112394;28;20501;-70
2023/04/21 08:06:46;;;;;;;10.55;8.32;;;;;;;18.27;44.87;98954.66;5090615;28;20039;-69
2023/04/21 08:09:11;;;;;;;11.57;7.57;;;;;;;17.73;43.46;98953.22;5090200;28;20099;-72
2023/04/21 08:11:37;;;;;;;12.45;7.50;;;;;;;17.86;45.46;98956.50;5112414;28;20054;-72
2023/04/21 08:14:02;;;;;;;14.05;8.13;;;;;;;18.15;44.80;98953.03;5112342;28;20771;-72
2023/04/21 08:16:28;;;;;;;10.63;7.68;;;;;;;18.44;43.92;98951.06;5092964;28;20506;-70
2023/04/21 08:18:54;;;;;;;10.90;7.60;;;;;;;18.52;43.83;98954.72;5112021;28;20037;-73
2023/04/21 08:21:19;;;;;;;10.25;7.07;;;;;;;18.52;44.03;98954.72;5110778;28;20034;-73
2023/04/21 08:23:45;;;;;;;7.55;6.78;;;;;;;18.41;42.91;98951.06;5109753;28;20027;-73
2023/04/21 08:26:10;;;;;;;9.90;7.35;;;;;;;18.79;42.60;98949.50;5112535;28;20116;-73
2023/04/21 08:28:36;;;;;;;9.90;7.05;;;;;;;18.45;42.98;98947.03;5093844;28;20023;-73
2023/04/21 08:31:01;;;;;;;9.98;7.13;;;;;;;18.76;42.56;98950.31;5108835;28;20023;-73
2023/04/21 08:33:27;;;;;;;10.32;7.13;;;;;;;19.26;42.55;98951.53;5110140;28;20020;-73
2023/04/21 08:35:52;;;;;;;8.68;7.50;;;;;;;18.71;43.07;98953.53;5103766;28;20028;-73
2023/04/21 08:38:18;;;;;;;13.73;8.35;;;;;;;19.01;42.36;98949.53;5098824;28;20027;-74
2023/04/21 08:40:43;;;;;;;9.48;7.00;;;;;;;19.56;40.82;98940.94;5109891;28;20102;-74
2023/04/21 08:43:09;;;;;;;9.40;6.25;;;;;;;19.53;40.72;98947.41;5090801;28;20024;-73
2023/04/21 08:45:35;;;;;;;10.88;6.63;;;;;;;19.57;40.02;98942.56;5081770;28;20401;-73
2023/04/21 08:48:03;;;;;;;7.85;7.03;;;;;;;19.51;40.12;98942.19;5111510;28;20032;-74
2023/04/21 08:50:30;;;;;;;10.60;6.85;;;;;;;19.72;39.17;98938.47;5111794;28;20031;-76
2023/04/21 08:52:56;;;;;;;7.90;7.10;;;;;;;19.74;39.96;98936.00;5102407;27;20482;-73
2023/04/21 08:55:27;;;;;;;8.93;7.28;;;;;;;19.55;40.81;98933.63;5103189;28;20028;-75
2023/04/21 08:57:52;;;;;;;10.43;7.13;;;;;;;19.27;41.38;98933.31;5103745;28;20111;-73
2023/04/21 09:00:18;;;;;;;9.85;6.55;;;;;;;19.68;41.27;98939.69;5100179;27;20028;-74
2023/04/21 09:02:58;;;;;;;7.93;6.93;;;;;;;19.78;40.00;98931.13;5105666;27;20417;-72
2023/04/21 09:05:27;;;;;;;12.23;7.40;;;;;;;19.25;40.30;98940.59;5110906;28;20022;-71
2023/04/21 09:08:11;;;;;;;12.82;7.93;;;;;;;19.42;41.28;98931.25;5109388;28;20020;-73
2023/04/21 09:10:50;;;;;;;13.60;7.75;;;;;;;20.02;39.27;98914.44;5084950;28;20080;-73
2023/04/21 09:13:17;;;;;;;6.88;6.05;;;;;;;19.96;39.39;98913.25;5109850;28;20043;-73
2023/04/21 09:15:45;;;;;;;7.70;5.60;;;;;;;19.58;38.96;98905.25;5107059;28;20387;-72
2023/04/21 09:18:15;;;;;;;9.30;5.70;;;;;;;19.28;38.33;98914.25;5085361;28;20024;-73
2023/04/21 09:20:43;;;;;;;6.72;5.65;;;;;;;19.41;41.11;98909.78;5108121;27;20518;-73
2023/04/21 09:23:09;;;;;;;7.20;5.70;;;;;;;19.99;37.97;98909.59;5099434;27;20035;-73
2023/04/21 09:25:38;;;;;;;9.50;5.65;;;;;;;19.98;38.12;98899.47;5081045;28;20020;-73
2023/04/21 09:28:10;;;;;;;11.82;5.68;;;;;;;19.88;38.95;98897.44;5107301;28;20567;-73
2023/04/21 09:30:37;;;;;;;6.57;5.38;;;;;;;20.42;38.21;98900.00;5090629;28;20027;-72
2023/04/21 09:33:03;;;;;;;6.47;5.40;;;;;;;20.40;37.45;98891.09;5102510;28;20031;-73
2023/04/21 09:35:32;;;;;;;9.40;5.25;;;;;;;19.77;37.52;98886.16;5098862;28;20521;-72
2023/04/21 09:38:00;;;;;;;8.85;5.43;;;;;;;20.11;37.04;98890.47;5082987;28;20035;-72
2023/04/21 09:40:27;;;;;;;8.10;5.25;;;;;;;20.23;37.09;98887.16;5079874;28;20383;-73
2023/04/21 09:42:52;;;;;;;11.20;5.97;;;;;;;20.02;37.13;98883.22;5087031;28;20110;-73
2023/04/21 09:45:18;;;;;;;10.18;5.70;;;;;;;19.94;37.33;98875.97;5091988;28;20459;-72
2023/04/21 09:47:50;;;;;;;6.28;5.15;;;;;;;20.50;36.66;98866.66;5109296;28;20444;-73
2023/04/21 09:50:16;;;;;;;8.57;4.70;;;;;;;20.71;36.23;98864.88;5102983;28;20049;-74
2023/04/21 09:52:43;;;;;;;4.97;4.47;;;;;;;20.57;37.38;98866.63;5106022;28;20030;-72
2023/04/21 09:55:12;;;;;;;12.00;6.78;;;;;;;21.04;36.27;98862.59;5097739;28;20031;-71
2023/04/21 09:57:40;;;;;;;6.78;5.63;;;;;;;21.33;34.82;98865.13;5101250;28;20080;-72
2023/04/21 10:00:08;;;;;;;7.90;5.00;;;;;;;21.03;34.47;98870.28;5100848;28;20035;-72
2023/04/21 10:02:35;;;;;;;5.97;4.80;;;;;;;20.53;34.97;98854.50;5106699;28;20027;-72
2023/04/21 10:05:05;;;;;;;8.15;5.25;;;;;;;20.50;36.08;98857.38;5105680;28;20059;-72
2023/04/21 10:07:31;;;;;;;9.60;5.35;;;;;;;20.28;36.27;98854.69;5100979;28;20019;-71
2023/04/21 10:09:59;;;;;;;7.45;4.90;;;;;;;20.11;35.28;98859.25;5096758;28;20031;-71
2023/04/21 10:12:25;;;;;;;8.15;4.15;;;;;;;20.00;34.38;98856.50;5079723;28;20485;-71
2023/04/21 10:14:52;;;;;;;7.10;4.15;;;;;;;20.25;34.33;98862.00;5091418;28;20039;-71
2023/04/21 10:17:21;;;;;;;6.35;4.30;;;;;;;20.40;34.89;98851.34;5096488;28;20047;-72
2023/04/21 10:19:57;;;;;;;8.03;4.67;;;;;;;20.16;35.74;98847.47;5093701;28;20111;-71
2023/04/21 10:22:30;;;;;;;5.20;4.60;;;;;;;20.65;35.10;98843.84;5093828;28;20023;-72
2023/04/21 10:24:56;;;;;;;6.18;4.80;;;;;;;20.88;34.05;98846.09;5095518;28;20024;-72
2023/04/21 10:27:34;;;;;;;5.15;4.40;;;;;;;20.44;34.00;98829.38;5076061;28;20020;-71
2023/04/21 10:30:00;;;;;;;5.82;4.53;;;;;;;20.55;33.47;98832.16;5101159;28;20446;-72
2023/04/21 10:32:46;;;;;;;6.10;4.82;;;;;;;21.07;34.11;98838.22;5095924;28;20027;-71
2023/04/21 10:35:21;;;;;;;7.45;4.57;;;;;;;21.04;35.24;98831.31;5096247;28;20090;-71
2023/04/21 10:37:48;;;;;;;4.28;3.88;;;;;;;20.98;33.83;98833.00;5086467;28;20569;-71
2023/04/21 10:40:35;;;;;;;8.43;4.10;;;;;;;20.63;34.86;98824.38;5082658;28;20104;-71
2023/04/21 10:43:04;;;;;;;17.40;4.90;;;;;;;21.34;34.81;98835.44;5100926;28;20099;-72
2023/04/21 10:45:31;;;;;;;9.50;6.63;;;;;;;21.69;33.86;98829.78;5099643;28;20031;-71
2023/04/21 10:48:00;;;;;;;6.53;4.35;;;;;;;21.43;33.49;98827.22;5086065;28;20051;-72
2023/04/21 10:50:30;;;;;;;5.20;3.92;;;;;;;21.27;32.63;98821.31;5092662;28;20402;-72
2023/04/21 10:53:10;;;;;;;4.60;4.20;;;;;;;21.33;33.52;98833.84;5099398;28;20020;-72
2023/04/21 10:55:37;;;;;;;5.50;3.63;;;;;;;22.00;31.51;98824.06;5097229;27;20028;-72
2023/04/21 10:58:08;;;;;;;5.65;3.92;;;;;;;21.48;31.38;98820.25;5102357;28;20035;-72
2023/04/21 11:00:36;;;;;;;6.78;4.38;;;;;;;21.77;32.17;98831.28;5102243;28;20096;-72
2023/04/21 11:03:04;;;;;;;4.38;3.60;;;;;;;21.22;31.62;98830.31;5085374;28;20031;-72
2023/04/21 11:05:40;;;;;;;4.78;4.00;;;;;;;21.66;32.37;98822.91;5086051;28;20016;-72
2023/04/21 11:08:13;;;;;;;4.97;4.15;;;;;;;21.90;32.81;98811.59;5094448;28;20020;-71
2023/04/21 11:10:43;;;;;;;5.85;4.88;;;;;;;21.26;33.90;98817.66;5099479;28;20523;-71
2023/04/21 11:13:10;;;;;;;5.85;4.72;;;;;;;20.95;33.87;98833.84;5103675;27;20050;-74
2023/04/21 11:15:35;;;;;;;11.60;4.78;;;;;;;21.21;33.52;98825.84;5095900;28;20032;-70
2023/04/21 11:18:02;;;;;;;5.25;3.80;;;;;;;21.26;33.35;98829.03;5103807;27;20034;-70
2023/04/21 11:20:27;;;;;;;5.22;4.53;;;;;;;20.81;33.21;98826.22;5105392;27;20022;-71
2023/04/21 11:22:55;;;;;;;11.23;4.70;;;;;;;20.87;33.65;98833.91;5090193;28;20031;-71